createdAt,value
2023-04-29T00:03:05.287Z,-18615.00
2023-04-29T00:08:06.307Z,-18616.00
2023-04-29T00:13:07.390Z,-18612.00
2023-04-29T00:18:09.145Z,-18609.00
2023-04-29T00:23:10.743Z,-18606.00
2023-04-29T00:28:11.627Z,-18601.00
2023-04-29T00:33:12.525Z,-18600.00
2023-04-29T00:38:13.646Z,-18599.00
2023-04-29T00:43:14.526Z,-18598.00
2023-04-29T00:48:15.557Z,-18598.00
2023-04-29T00:53:16.586Z,-18595.00
2023-04-29T00:58:19.267Z,-18597.00
2023-04-29T01:03:21.391Z,-18597.00
2023-04-29T01:10:20.317Z,-18600.00
2023-04-29T01:16:46.991Z,-18599.00
2023-04-29T01:21:49.232Z,-18596.00
2023-04-29T01:27:01.827Z,-18597.00
2023-04-29T01:32:29.018Z,-18595.00
2023-04-29T01:37:56.232Z,-18597.00
2023-04-29T01:43:02.433Z,-18600.00
2023-04-29T01:48:05.328Z,-18600.00
2023-04-29T01:53:07.170Z,-18600.00
2023-04-29T01:58:10.398Z,-18602.00
2023-04-29T02:03:30.208Z,-18603.00
2023-04-29T02:08:32.436Z,-18603.00
2023-04-29T02:13:34.890Z,-18603.00
2023-04-29T02:18:36.328Z,-18603.00
2023-04-29T02:23:39.341Z,-18603.00
2023-04-29T02:28:40.133Z,-18602.00
2023-04-29T02:33:41.449Z,-18603.00
2023-04-29T02:38:43.665Z,-18604.00
2023-04-29T02:43:44.476Z,-18605.00
2023-04-29T02:48:45.264Z,-18606.00
2023-04-29T02:53:46.678Z,-18604.00
2023-04-29T02:58:47.467Z,-18601.00
2023-04-29T03:03:48.567Z,-18603.00
2023-04-29T03:08:49.748Z,-18601.00
2023-04-29T03:13:52.400Z,-18604.00
2023-04-29T03:18:54.457Z,-18603.00
2023-04-29T03:23:55.443Z,-18604.00
2023-04-29T03:29:01.251Z,-18607.00
2023-04-29T03:34:02.181Z,-18600.00
2023-04-29T03:39:06.390Z,-18602.00
2023-04-29T03:44:07.407Z,-18601.00
2023-04-29T03:49:08.639Z,-18601.00
2023-04-29T03:54:09.662Z,-18600.00
2023-04-29T03:59:10.806Z,-18598.00
2023-04-29T04:04:12.736Z,-18597.00
2023-04-29T04:09:17.584Z,-18593.00
2023-04-29T04:14:18.788Z,-18592.00
2023-04-29T04:19:19.915Z,-18590.00
2023-04-29T04:24:22.431Z,-18589.00
2023-04-29T04:29:23.338Z,-18588.00
2023-04-29T04:34:49.634Z,-18588.00
2023-04-29T04:39:50.830Z,-18586.00
2023-04-29T04:44:53.308Z,-18585.00
2023-04-29T04:50:21.936Z,-18585.00
2023-04-29T04:55:24.003Z,-18583.00
2023-04-29T05:00:25.782Z,-18584.00
2023-04-29T05:05:26.800Z,-18585.00
2023-04-29T05:10:28.469Z,-18581.00
2023-04-29T05:15:30.622Z,-18579.00
2023-04-29T05:20:33.044Z,-18576.00
2023-04-29T05:25:35.343Z,-18576.00
2023-04-29T05:30:37.131Z,-18575.00
2023-04-29T05:35:39.054Z,-18576.00
2023-04-29T05:40:40.427Z,-18579.00
2023-04-29T05:48:18.477Z,-18578.00
2023-04-29T05:53:19.808Z,-18577.00
2023-04-29T05:58:22.036Z,-18576.00
2023-04-29T06:03:23.680Z,-18576.00
2023-04-29T06:08:32.814Z,-18578.00
2023-04-29T06:13:39.038Z,-18575.00
2023-04-29T06:18:40.752Z,-18573.00
2023-04-29T06:23:41.592Z,-18574.00
2023-04-29T06:28:49.989Z,-18582.00
2023-04-29T06:33:50.992Z,-18581.00
2023-04-29T06:38:52.557Z,-18585.00
2023-04-29T06:44:07.361Z,-18585.00
2023-04-29T06:49:36.728Z,-18590.00
2023-04-29T06:54:39.409Z,-18585.00
2023-04-29T06:59:40.443Z,-18587.00
2023-04-29T07:04:41.348Z,-18589.00
2023-04-29T07:09:42.131Z,-18585.00
2023-04-29T07:14:42.942Z,-18584.00
2023-04-29T07:19:43.844Z,-18589.00
2023-04-29T07:24:44.966Z,-18586.00
2023-04-29T07:29:45.997Z,-18588.00
2023-04-29T07:34:46.908Z,-18594.00
2023-04-29T07:39:47.738Z,-18596.00
2023-04-29T07:44:48.583Z,-18597.00
2023-04-29T07:49:49.388Z,-18596.00
2023-04-29T07:54:51.093Z,-18597.00
2023-04-29T07:59:53.687Z,-18601.00
2023-04-29T08:04:55.928Z,-18598.00
2023-04-29T08:09:57.344Z,-18599.00
2023-04-29T08:14:58.083Z,-18602.00
2023-04-29T08:19:58.888Z,-18596.00
2023-04-29T08:25:00.186Z,-18598.00
2023-04-29T08:30:01.374Z,-18597.00
2023-04-29T08:35:02.358Z,-18591.00
2023-04-29T08:40:04.014Z,-18596.00
2023-04-29T08:45:06.596Z,-18593.00
2023-04-29T08:50:08.554Z,-18595.00
2023-04-29T08:55:09.392Z,-18597.00
2023-04-29T09:00:11.450Z,-18600.00
2023-04-29T09:05:12.698Z,-18603.00
2023-04-29T09:10:15.303Z,-18600.00
2023-04-29T09:15:16.088Z,-18600.00
2023-04-29T09:20:35.189Z,-18603.00
2023-04-29T09:25:36.365Z,-18606.00
2023-04-29T09:30:46.427Z,-18597.00
2023-04-29T09:35:47.955Z,-18592.00
2023-04-29T09:40:58.410Z,-18588.00
2023-04-29T09:46:01.308Z,-18585.00
2023-04-29T09:51:02.398Z,-18581.00
2023-04-29T09:56:04.861Z,-18583.00
2023-04-29T10:01:06.590Z,-18586.00
2023-04-29T10:06:08.060Z,-18588.00
2023-04-29T10:11:11.040Z,-18588.00
2023-04-29T10:16:34.527Z,-18592.00
2023-04-29T10:21:35.834Z,-18594.00
2023-04-29T10:26:38.448Z,-18604.00
2023-04-29T10:31:40.830Z,-18610.00
2023-04-29T10:36:41.767Z,-18623.00
2023-04-29T10:41:46.410Z,-18621.00
2023-04-29T10:46:47.205Z,-18623.00
2023-04-29T10:51:47.994Z,-18628.00
2023-04-29T10:56:53.596Z,-18633.00
2023-04-29T11:01:54.557Z,-18628.00
2023-04-29T11:06:58.595Z,-18618.00
2023-04-29T11:12:04.691Z,-18614.00
2023-04-29T11:17:23.570Z,-18616.00
2023-04-29T11:22:33.311Z,-18623.00
2023-04-29T11:27:39.529Z,-18627.00
2023-04-29T11:32:41.983Z,-18621.00
2023-04-29T11:37:44.848Z,-18611.00
2023-04-29T11:42:47.560Z,-18605.00
2023-04-29T11:47:49.150Z,-18603.00
2023-04-29T11:52:50.197Z,-18610.00
2023-04-29T11:57:51.588Z,-18615.00
2023-04-29T12:02:52.687Z,-18626.00
2023-04-29T12:07:56.448Z,-18633.00
2023-04-29T12:12:58.080Z,-18631.00
2023-04-29T12:18:00.922Z,-18627.00
2023-04-29T12:23:14.851Z,-18631.00
2023-04-29T12:28:16.227Z,-18668.00
2023-04-29T12:33:26.074Z,-18695.00
2023-04-29T12:38:30.268Z,-18710.00
2023-04-29T12:43:32.999Z,-18705.00
2023-04-29T12:48:37.737Z,-18703.00
2023-04-29T12:53:38.704Z,-18696.00
2023-04-29T12:58:39.792Z,-18683.00
2023-04-29T13:03:40.734Z,-18679.00
2023-04-29T13:08:41.748Z,-18674.00
2023-04-29T13:13:42.626Z,-18669.00
2023-04-29T13:18:55.597Z,-18662.00
2023-04-29T13:24:06.800Z,-18663.00
2023-04-29T13:29:07.672Z,-18664.00
2023-04-29T13:34:09.622Z,-18672.00
2023-04-29T13:39:10.627Z,-18669.00
2023-04-29T13:44:23.915Z,-18665.00
2023-04-29T13:49:54.752Z,-18664.00
2023-04-29T13:56:01.824Z,-18669.00
2023-04-29T14:06:34.019Z,-18680.00
2023-04-29T14:11:35.962Z,-18676.00
2023-04-29T14:16:36.779Z,-18673.00
2023-04-29T14:21:37.624Z,-18668.00
2023-04-29T14:26:38.400Z,-18664.00
2023-04-29T14:31:39.368Z,-18662.00
2023-04-29T14:36:40.589Z,-18655.00
2023-04-29T14:41:41.354Z,-18649.00
2023-04-29T14:46:42.363Z,-18655.00
2023-04-29T14:51:43.241Z,-18650.00
2023-04-29T14:56:44.016Z,-18656.00
2023-04-29T15:01:45.121Z,-18653.00
2023-04-29T15:06:46.409Z,-18651.00
2023-04-29T15:11:47.217Z,-18642.00
2023-04-29T15:16:48.249Z,-18643.00
2023-04-29T15:21:49.137Z,-18642.00
2023-04-29T15:26:51.376Z,-18644.00
2023-04-29T15:31:52.394Z,-18641.00
2023-04-29T15:36:55.455Z,-18636.00
2023-04-29T15:41:57.896Z,-18632.00
2023-04-29T15:46:59.156Z,-18629.00
2023-04-29T15:52:00.212Z,-18631.00
2023-04-29T15:57:04.578Z,-18638.00
2023-04-29T16:02:10.403Z,-18638.00
2023-04-29T16:07:11.470Z,-18632.00
2023-04-29T16:12:13.307Z,-18631.00
2023-04-29T16:17:14.202Z,-18628.00
2023-04-29T16:22:14.988Z,-18630.00
2023-04-29T16:27:16.365Z,-18632.00
2023-04-29T16:32:17.218Z,-18625.00
2023-04-29T16:37:18.117Z,-18618.00
2023-04-29T16:42:18.947Z,-18621.00
2023-04-29T16:47:22.752Z,-18614.00
2023-04-29T16:52:23.769Z,-18614.00
2023-04-29T16:57:25.730Z,-18612.00
2023-04-29T17:02:26.904Z,-18616.00
2023-04-29T17:07:28.302Z,-18615.00
2023-04-29T17:12:29.154Z,-18615.00
2023-04-29T17:17:30.300Z,-18614.00
2023-04-29T17:22:32.486Z,-18611.00
2023-04-29T17:27:33.973Z,-18613.00
2023-04-29T17:32:38.301Z,-18608.00
2023-04-29T17:37:39.915Z,-18605.00
2023-04-29T17:42:40.974Z,-18600.00
2023-04-29T17:47:41.785Z,-18598.00
2023-04-29T17:52:42.588Z,-18593.00
2023-04-29T17:57:43.675Z,-18592.00
2023-04-29T18:02:44.495Z,-18590.00
2023-04-29T18:07:45.526Z,-18590.00
2023-04-29T18:12:46.275Z,-18582.00
2023-04-29T18:17:47.699Z,-18583.00
2023-04-29T18:22:49.750Z,-18581.00
2023-04-29T18:27:51.499Z,-18578.00
2023-04-29T18:32:53.725Z,-18577.00
2023-04-29T18:37:54.769Z,-18575.00
2023-04-29T18:42:55.530Z,-18575.00
2023-04-29T18:47:56.356Z,-18577.00
2023-04-29T18:52:57.218Z,-18573.00
2023-04-29T18:57:58.015Z,-18573.00
2023-04-29T19:02:58.915Z,-18575.00
2023-04-29T19:07:59.958Z,-18570.00
2023-04-29T19:13:00.815Z,-18572.00
2023-04-29T19:18:01.666Z,-18571.00
2023-04-29T19:23:02.983Z,-18570.00
2023-04-29T19:28:04.012Z,-18571.00
2023-04-29T19:33:05.435Z,-18569.00
2023-04-29T19:38:06.476Z,-18570.00
2023-04-29T19:43:07.478Z,-18571.00
2023-04-29T19:48:08.349Z,-18568.00
2023-04-29T19:53:10.687Z,-18566.00
2023-04-29T19:58:11.456Z,-18565.00
2023-04-29T20:03:12.282Z,-18565.00
2023-04-29T20:08:15.962Z,-18564.00
2023-04-29T20:13:16.708Z,-18562.00
2023-04-29T20:18:17.524Z,-18568.00
2023-04-29T20:23:18.628Z,-18565.00
2023-04-29T20:28:19.679Z,-18566.00
2023-04-29T20:33:20.559Z,-18568.00
2023-04-29T20:38:22.618Z,-18569.00
2023-04-29T20:43:24.907Z,-18566.00
2023-04-29T20:48:27.394Z,-18565.00
2023-04-29T20:53:28.202Z,-18565.00
2023-04-29T20:58:29.054Z,-18563.00
2023-04-29T21:03:32.839Z,-18568.00
2023-04-29T21:08:33.796Z,-18566.00
2023-04-29T21:13:34.683Z,-18562.00
2023-04-29T21:18:35.763Z,-18563.00
2023-04-29T21:23:37.381Z,-18568.00
2023-04-29T21:28:38.164Z,-18565.00
2023-04-29T21:33:39.084Z,-18564.00
2023-04-29T21:38:41.821Z,-18567.00
2023-04-29T21:43:42.630Z,-18566.00
2023-04-29T21:48:43.513Z,-18565.00
2023-04-29T21:53:45.027Z,-18564.00
2023-04-29T21:58:45.847Z,-18566.00
2023-04-29T22:03:46.621Z,-18571.00
2023-04-29T22:08:47.591Z,-18574.00
2023-04-29T22:13:48.500Z,-18572.00
2023-04-29T22:18:49.504Z,-18568.00
2023-04-29T22:23:50.553Z,-18567.00
2023-04-29T22:28:51.832Z,-18559.00
2023-04-29T22:33:52.855Z,-18563.00
2023-04-29T22:38:54.227Z,-18563.00
2023-04-29T22:43:57.984Z,-18568.00
2023-04-29T22:48:58.749Z,-18568.00
2023-04-29T22:53:59.535Z,-18568.00
2023-04-29T22:59:00.283Z,-18565.00
2023-04-29T23:04:01.638Z,-18567.00
2023-04-29T23:09:02.754Z,-18567.00
2023-04-29T23:14:03.546Z,-18569.00
2023-04-29T23:19:04.746Z,-18570.00
2023-04-29T23:24:05.603Z,-18569.00
2023-04-29T23:29:06.484Z,-18565.00
2023-04-29T23:34:07.395Z,-18567.00
2023-04-29T23:39:08.284Z,-18568.00
2023-04-29T23:44:09.022Z,-18569.00
2023-04-29T23:49:09.817Z,-18568.00
2023-04-29T23:54:10.565Z,-18572.00
2023-04-29T23:59:11.357Z,-18569.00
